CTN480 LDZA-EKCH
Flight info
| Callsign | CTN480 |
|---|---|
| Flight time | 1h 39m |
| Altitude | 36000 |
| Route | OBUTI DCT NIGSI DCT LANUX DCT HDO DCT LUROS DCT USEDU M602 PENET T298 MONAK |
| Aircraft | A320/M-SDE3FGHIRWY/LB1 |
Departure
| Time | 2026-04-26 10:47 |
|---|---|
| Airport | Zagreb Franjo Tuđman International Airport (LDZA) |
Arrival
| Time | 2026-04-26 12:26 |
|---|---|
| Airport | Copenhagen Kastrup Airport (EKCH) |
| Time | Latitude | Longitude | Altitude | Speed | Heading |
|---|---|---|---|---|---|
| 2026-04-26 10:22 | 45.74220 | 16.07930 | 359 ft | 0 kts | 138° |
| 2026-04-26 10:37 | 45.74223 | 16.07927 | 363 ft | 1 kts | 138° |
| 2026-04-26 10:37 | 45.74228 | 16.07920 | 361 ft | 1 kts | 138° |
| 2026-04-26 10:38 | 45.74233 | 16.07914 | 359 ft | 1 kts | 138° |
| 2026-04-26 10:38 | 45.74240 | 16.07904 | 361 ft | 2 kts | 138° |
| 2026-04-26 10:38 | 45.74250 | 16.07892 | 363 ft | 2 kts | 138° |
| 2026-04-26 10:38 | 45.74260 | 16.07879 | 364 ft | 2 kts | 138° |
| 2026-04-26 10:39 | 45.74274 | 16.07861 | 361 ft | 3 kts | 138° |
| 2026-04-26 10:39 | 45.74292 | 16.07847 | 359 ft | 2 kts | 201° |
| 2026-04-26 10:39 | 45.74316 | 16.07862 | 359 ft | 3 kts | 219° |
| 2026-04-26 10:39 | 45.74318 | 16.07864 | 359 ft | 0 kts | 227° |
| 2026-04-26 10:41 | 45.74300 | 16.07836 | 362 ft | 13 kts | 227° |
| 2026-04-26 10:41 | 45.74238 | 16.07741 | 359 ft | 12 kts | 226° |
| 2026-04-26 10:41 | 45.74182 | 16.07658 | 359 ft | 11 kts | 226° |
| 2026-04-26 10:41 | 45.74116 | 16.07557 | 359 ft | 14 kts | 227° |
| 2026-04-26 10:42 | 45.74057 | 16.07459 | 359 ft | 12 kts | 249° |
| 2026-04-26 10:42 | 45.74071 | 16.07394 | 360 ft | 10 kts | 313° |
| 2026-04-26 10:42 | 45.74154 | 16.07280 | 357 ft | 15 kts | 317° |
| 2026-04-26 10:42 | 45.74203 | 16.07212 | 362 ft | 14 kts | 313° |
| 2026-04-26 10:43 | 45.74181 | 16.07104 | 360 ft | 17 kts | 226° |
| 2026-04-26 10:43 | 45.74093 | 16.06970 | 360 ft | 19 kts | 226° |
| 2026-04-26 10:43 | 45.73971 | 16.06786 | 357 ft | 28 kts | 226° |
| 2026-04-26 10:43 | 45.73834 | 16.06577 | 359 ft | 28 kts | 226° |
| 2026-04-26 10:44 | 45.73785 | 16.06503 | 360 ft | 8 kts | 226° |
| 2026-04-26 10:44 | 45.73750 | 16.06450 | 360 ft | 7 kts | 229° |
| 2026-04-26 10:44 | 45.73745 | 16.06439 | 360 ft | 0 kts | 235° |
| 2026-04-26 10:44 | 45.73747 | 16.06390 | 364 ft | 13 kts | 301° |
| 2026-04-26 10:45 | 45.73805 | 16.06311 | 363 ft | 9 kts | 317° |
| 2026-04-26 10:45 | 45.73842 | 16.06263 | 364 ft | 6 kts | 317° |
| 2026-04-26 10:45 | 45.73866 | 16.06236 | 364 ft | 2 kts | 339° |
| 2026-04-26 10:45 | 45.73875 | 16.06245 | 367 ft | 1 kts | 46° |
| 2026-04-26 10:46 | 45.73877 | 16.06248 | 367 ft | 0 kts | 46° |
| 2026-04-26 10:46 | 45.73884 | 16.06259 | 367 ft | 10 kts | 47° |
| 2026-04-26 10:46 | 45.74115 | 16.06608 | 361 ft | 83 kts | 46° |
| 2026-04-26 10:46 | 45.74641 | 16.07406 | 360 ft | 139 kts | 46° |
| 2026-04-26 10:47 | 45.75368 | 16.08526 | 636 ft | 161 kts | 49° |
| 2026-04-26 10:47 | 45.76146 | 16.09725 | 1259 ft | 168 kts | 47° |
| 2026-04-26 10:47 | 45.76973 | 16.10982 | 1886 ft | 180 kts | 48° |
| 2026-04-26 10:47 | 45.77877 | 16.12351 | 2422 ft | 198 kts | 48° |
| 2026-04-26 10:48 | 45.78851 | 16.13831 | 2960 ft | 211 kts | 47° |
| 2026-04-26 10:48 | 45.79899 | 16.15427 | 3504 ft | 231 kts | 48° |
| 2026-04-26 10:48 | 45.81052 | 16.17184 | 4115 ft | 252 kts | 45° |
| 2026-04-26 10:48 | 45.82300 | 16.19086 | 4723 ft | 272 kts | 45° |
| 2026-04-26 10:49 | 45.83637 | 16.21125 | 5368 ft | 290 kts | 45° |
| 2026-04-26 10:49 | 45.85057 | 16.23290 | 5995 ft | 304 kts | 44° |
| 2026-04-26 10:49 | 45.86533 | 16.25540 | 6638 ft | 316 kts | 44° |
| 2026-04-26 10:49 | 45.88060 | 16.27869 | 7256 ft | 323 kts | 44° |
| 2026-04-26 10:50 | 45.89596 | 16.30251 | 7867 ft | 327 kts | 47° |
| 2026-04-26 10:50 | 45.90991 | 16.32849 | 8490 ft | 330 kts | 50° |
| 2026-04-26 10:50 | 45.92389 | 16.35476 | 9131 ft | 332 kts | 47° |
| 2026-04-26 10:50 | 45.94111 | 16.37645 | 9779 ft | 330 kts | 28° |
| 2026-04-26 10:51 | 45.96218 | 16.38876 | 10405 ft | 328 kts | 9° |
| 2026-04-26 10:51 | 46.00736 | 16.38434 | 11620 ft | 331 kts | 347° |
| 2026-04-26 10:51 | 46.02998 | 16.37755 | 12253 ft | 334 kts | 347° |
| 2026-04-26 10:52 | 46.05288 | 16.37067 | 12890 ft | 337 kts | 347° |
| 2026-04-26 10:52 | 46.07599 | 16.36377 | 13544 ft | 341 kts | 347° |
| 2026-04-26 10:52 | 46.09935 | 16.35684 | 14178 ft | 345 kts | 347° |
| 2026-04-26 10:52 | 46.12303 | 16.34983 | 14772 ft | 349 kts | 347° |
| 2026-04-26 10:53 | 46.14698 | 16.34277 | 15386 ft | 353 kts | 347° |
| 2026-04-26 10:53 | 46.17115 | 16.33565 | 15996 ft | 356 kts | 347° |
| 2026-04-26 10:53 | 46.19557 | 16.32842 | 16627 ft | 360 kts | 347° |
| 2026-04-26 10:54 | 46.24499 | 16.31372 | 17923 ft | 365 kts | 347° |
| 2026-04-26 10:54 | 46.26992 | 16.30632 | 18576 ft | 366 kts | 347° |
| 2026-04-26 10:54 | 46.29492 | 16.29891 | 19155 ft | 368 kts | 347° |
| 2026-04-26 10:54 | 46.32003 | 16.29147 | 19755 ft | 368 kts | 346° |
| 2026-04-26 10:55 | 46.34513 | 16.28402 | 20364 ft | 369 kts | 346° |
| 2026-04-26 10:55 | 46.37032 | 16.27651 | 20989 ft | 369 kts | 346° |
| 2026-04-26 10:55 | 46.39553 | 16.26926 | 21623 ft | 369 kts | 347° |
| 2026-04-26 10:55 | 46.42082 | 16.26287 | 22271 ft | 369 kts | 348° |
| 2026-04-26 10:56 | 46.44621 | 16.25702 | 22935 ft | 369 kts | 349° |
| 2026-04-26 10:56 | 46.47149 | 16.25143 | 23615 ft | 367 kts | 348° |
| 2026-04-26 10:56 | 46.49673 | 16.24584 | 24171 ft | 367 kts | 348° |
| 2026-04-26 10:56 | 46.52202 | 16.24009 | 24638 ft | 369 kts | 348° |
| 2026-04-26 10:57 | 46.54743 | 16.23418 | 25111 ft | 370 kts | 348° |
| 2026-04-26 10:57 | 46.57290 | 16.22816 | 25604 ft | 371 kts | 348° |
| 2026-04-26 10:57 | 46.59807 | 16.22215 | 26075 ft | 372 kts | 347° |
| 2026-04-26 10:57 | 46.62356 | 16.21606 | 26582 ft | 372 kts | 347° |
| 2026-04-26 10:58 | 46.64911 | 16.20996 | 27086 ft | 372 kts | 347° |
| 2026-04-26 10:58 | 46.67463 | 16.20387 | 27606 ft | 371 kts | 347° |
| 2026-04-26 10:58 | 46.70014 | 16.19782 | 28135 ft | 371 kts | 347° |
| 2026-04-26 10:58 | 46.72558 | 16.19175 | 28670 ft | 370 kts | 347° |
| 2026-04-26 10:59 | 46.75093 | 16.18569 | 29208 ft | 369 kts | 347° |
| 2026-04-26 10:59 | 46.77618 | 16.17969 | 29735 ft | 368 kts | 347° |
| 2026-04-26 10:59 | 46.80147 | 16.17364 | 30211 ft | 368 kts | 347° |
| 2026-04-26 10:59 | 46.82670 | 16.16756 | 30626 ft | 367 kts | 346° |
| 2026-04-26 11:00 | 46.85197 | 16.16147 | 30971 ft | 369 kts | 346° |
| 2026-04-26 11:00 | 46.87729 | 16.15537 | 31340 ft | 370 kts | 346° |
| 2026-04-26 11:00 | 46.90275 | 16.14925 | 31671 ft | 371 kts | 346° |
| 2026-04-26 11:00 | 46.92831 | 16.14310 | 32006 ft | 373 kts | 346° |
| 2026-04-26 11:01 | 46.95396 | 16.13690 | 32340 ft | 374 kts | 346° |
| 2026-04-26 11:01 | 46.97969 | 16.13065 | 32678 ft | 375 kts | 346° |
| 2026-04-26 11:01 | 47.00548 | 16.12440 | 33020 ft | 376 kts | 346° |
| 2026-04-26 11:01 | 47.03131 | 16.11816 | 33377 ft | 376 kts | 346° |
| 2026-04-26 11:02 | 47.05708 | 16.11195 | 33732 ft | 376 kts | 345° |
| 2026-04-26 11:02 | 47.08286 | 16.10572 | 34045 ft | 376 kts | 345° |
| 2026-04-26 11:02 | 47.10879 | 16.09943 | 34304 ft | 378 kts | 345° |
| 2026-04-26 11:02 | 47.13472 | 16.09317 | 34537 ft | 378 kts | 345° |
| 2026-04-26 11:03 | 47.16075 | 16.08687 | 34751 ft | 380 kts | 345° |
| 2026-04-26 11:03 | 47.18689 | 16.08050 | 34952 ft | 381 kts | 345° |
| 2026-04-26 11:03 | 47.21314 | 16.07412 | 35152 ft | 383 kts | 345° |
| 2026-04-26 11:03 | 47.23942 | 16.06779 | 35352 ft | 384 kts | 345° |
| 2026-04-26 11:04 | 47.26584 | 16.06141 | 35553 ft | 385 kts | 345° |
| 2026-04-26 11:04 | 47.29225 | 16.05497 | 35759 ft | 385 kts | 345° |
| 2026-04-26 11:04 | 47.31875 | 16.04848 | 35965 ft | 386 kts | 345° |
| 2026-04-26 11:04 | 47.34531 | 16.04197 | 36129 ft | 388 kts | 345° |
| 2026-04-26 11:05 | 47.39928 | 16.02840 | 36172 ft | 399 kts | 344° |
| 2026-04-26 11:05 | 47.45460 | 16.01335 | 36178 ft | 410 kts | 344° |
| 2026-04-26 11:06 | 47.51137 | 15.99770 | 36182 ft | 420 kts | 345° |
| 2026-04-26 11:06 | 47.56950 | 15.98193 | 36187 ft | 428 kts | 345° |
| 2026-04-26 11:07 | 47.62827 | 15.96610 | 36190 ft | 430 kts | 345° |
| 2026-04-26 11:07 | 47.68720 | 15.95021 | 36199 ft | 431 kts | 345° |
| 2026-04-26 11:08 | 47.74620 | 15.93420 | 36207 ft | 431 kts | 345° |
| 2026-04-26 11:08 | 47.80514 | 15.91807 | 36219 ft | 431 kts | 345° |
| 2026-04-26 11:09 | 47.86417 | 15.90184 | 36228 ft | 431 kts | 345° |
| 2026-04-26 11:09 | 47.92313 | 15.88570 | 36236 ft | 431 kts | 345° |
| 2026-04-26 11:10 | 47.98207 | 15.86949 | 36242 ft | 430 kts | 345° |
| 2026-04-26 11:10 | 48.04107 | 15.85328 | 36252 ft | 431 kts | 345° |
| 2026-04-26 11:11 | 48.10000 | 15.83706 | 36258 ft | 430 kts | 345° |
| 2026-04-26 11:11 | 48.15884 | 15.82076 | 36261 ft | 430 kts | 344° |
| 2026-04-26 11:12 | 48.21764 | 15.80440 | 36259 ft | 430 kts | 344° |
| 2026-04-26 11:12 | 48.27639 | 15.78804 | 36266 ft | 430 kts | 344° |
| 2026-04-26 11:13 | 48.33477 | 15.77184 | 36262 ft | 430 kts | 344° |
| 2026-04-26 11:13 | 48.39359 | 15.75551 | 36260 ft | 430 kts | 344° |
| 2026-04-26 11:14 | 48.45225 | 15.73900 | 36257 ft | 430 kts | 344° |
| 2026-04-26 11:14 | 48.50156 | 15.72516 | 36256 ft | 430 kts | 344° |
| 2026-04-26 11:15 | 48.56991 | 15.70603 | 36258 ft | 430 kts | 344° |
| 2026-04-26 11:15 | 48.62870 | 15.68948 | 36260 ft | 430 kts | 344° |
| 2026-04-26 11:16 | 48.68743 | 15.67286 | 36255 ft | 430 kts | 344° |
| 2026-04-26 11:16 | 48.74619 | 15.65617 | 36259 ft | 429 kts | 344° |
| 2026-04-26 11:17 | 48.80495 | 15.63945 | 36259 ft | 430 kts | 344° |
| 2026-04-26 11:17 | 48.86370 | 15.62278 | 36261 ft | 430 kts | 344° |
| 2026-04-26 11:18 | 48.92030 | 15.59710 | 36263 ft | 423 kts | 334° |
| 2026-04-26 11:18 | 48.97513 | 15.56475 | 36262 ft | 423 kts | 334° |
| 2026-04-26 11:19 | 49.03012 | 15.53253 | 36254 ft | 423 kts | 334° |
| 2026-04-26 11:19 | 49.08504 | 15.50035 | 36268 ft | 423 kts | 334° |
| 2026-04-26 11:20 | 49.13069 | 15.47349 | 36262 ft | 423 kts | 334° |
| 2026-04-26 11:20 | 49.19487 | 15.43548 | 36264 ft | 423 kts | 334° |
| 2026-04-26 11:21 | 49.24978 | 15.40288 | 36263 ft | 423 kts | 334° |
| 2026-04-26 11:21 | 49.30460 | 15.37035 | 36268 ft | 423 kts | 334° |
| 2026-04-26 11:22 | 49.35945 | 15.33778 | 36268 ft | 422 kts | 334° |
| 2026-04-26 11:22 | 49.41418 | 15.30511 | 36268 ft | 422 kts | 334° |
| 2026-04-26 11:23 | 49.46887 | 15.27233 | 36270 ft | 422 kts | 334° |
| 2026-04-26 11:23 | 49.52353 | 15.23953 | 36272 ft | 422 kts | 334° |
| 2026-04-26 11:24 | 49.57823 | 15.20664 | 36274 ft | 422 kts | 334° |
| 2026-04-26 11:24 | 49.63292 | 15.17364 | 36276 ft | 422 kts | 334° |
| 2026-04-26 11:25 | 49.68747 | 15.14058 | 36276 ft | 422 kts | 334° |
| 2026-04-26 11:25 | 49.74186 | 15.10765 | 36281 ft | 422 kts | 334° |
| 2026-04-26 11:26 | 49.79657 | 15.07453 | 36283 ft | 422 kts | 334° |
| 2026-04-26 11:26 | 49.85122 | 15.04129 | 36284 ft | 422 kts | 334° |
| 2026-04-26 11:27 | 49.90588 | 15.00797 | 36288 ft | 422 kts | 334° |
| 2026-04-26 11:27 | 49.96056 | 14.97461 | 36292 ft | 422 kts | 334° |
| 2026-04-26 11:28 | 50.01513 | 14.94108 | 36297 ft | 422 kts | 334° |
| 2026-04-26 11:28 | 50.06977 | 14.90745 | 36305 ft | 422 kts | 334° |
| 2026-04-26 11:29 | 50.12444 | 14.87383 | 36305 ft | 422 kts | 334° |
| 2026-04-26 11:29 | 50.17908 | 14.84009 | 36309 ft | 422 kts | 333° |
| 2026-04-26 11:30 | 50.22445 | 14.81193 | 36311 ft | 422 kts | 333° |
| 2026-04-26 11:30 | 50.27913 | 14.77797 | 36311 ft | 423 kts | 334° |
| 2026-04-26 11:31 | 50.33373 | 14.74408 | 36310 ft | 422 kts | 333° |
| 2026-04-26 11:31 | 50.38830 | 14.71007 | 36305 ft | 422 kts | 333° |
| 2026-04-26 11:32 | 50.44282 | 14.67605 | 36252 ft | 422 kts | 335° |
| 2026-04-26 11:32 | 50.49739 | 14.64191 | 36264 ft | 422 kts | 335° |
| 2026-04-26 11:33 | 50.55186 | 14.60762 | 36275 ft | 421 kts | 335° |
| 2026-04-26 11:33 | 50.60624 | 14.57332 | 36279 ft | 421 kts | 335° |
| 2026-04-26 11:34 | 50.66062 | 14.53895 | 36282 ft | 421 kts | 335° |
| 2026-04-26 11:34 | 50.71497 | 14.50455 | 36286 ft | 421 kts | 335° |
| 2026-04-26 11:35 | 50.76932 | 14.47010 | 36284 ft | 421 kts | 335° |
| 2026-04-26 11:35 | 50.82368 | 14.43560 | 36287 ft | 421 kts | 335° |
| 2026-04-26 11:36 | 50.87801 | 14.40108 | 36289 ft | 421 kts | 335° |
| 2026-04-26 11:36 | 50.93306 | 14.36947 | 36289 ft | 424 kts | 343° |
| 2026-04-26 11:37 | 50.99179 | 14.35626 | 36297 ft | 427 kts | 349° |
| 2026-04-26 11:37 | 51.05034 | 14.34483 | 36300 ft | 427 kts | 349° |
| 2026-04-26 11:38 | 51.10920 | 14.33321 | 36305 ft | 426 kts | 349° |
| 2026-04-26 11:38 | 51.16806 | 14.32161 | 36311 ft | 426 kts | 349° |
| 2026-04-26 11:39 | 51.22688 | 14.30991 | 36308 ft | 425 kts | 349° |
| 2026-04-26 11:39 | 51.28559 | 14.29822 | 36306 ft | 425 kts | 348° |
| 2026-04-26 11:40 | 51.34429 | 14.28652 | 36307 ft | 425 kts | 348° |
| 2026-04-26 11:40 | 51.40290 | 14.27482 | 36311 ft | 425 kts | 348° |
| 2026-04-26 11:42 | 51.63702 | 14.22772 | 36313 ft | 423 kts | 348° |
| 2026-04-26 11:43 | 51.69543 | 14.21587 | 36314 ft | 423 kts | 348° |
| 2026-04-26 11:43 | 51.75379 | 14.20409 | 36315 ft | 423 kts | 348° |
| 2026-04-26 11:44 | 51.81213 | 14.19228 | 36314 ft | 422 kts | 348° |
| 2026-04-26 11:44 | 51.87041 | 14.18037 | 36319 ft | 422 kts | 348° |
| 2026-04-26 11:45 | 51.92873 | 14.16968 | 36317 ft | 423 kts | 351° |
| 2026-04-26 11:45 | 51.98765 | 14.16408 | 36316 ft | 424 kts | 352° |
| 2026-04-26 11:46 | 52.04664 | 14.15997 | 36312 ft | 424 kts | 352° |
| 2026-04-26 11:46 | 52.10553 | 14.15497 | 36315 ft | 423 kts | 351° |
| 2026-04-26 11:47 | 52.16432 | 14.14905 | 36325 ft | 423 kts | 351° |
| 2026-04-26 11:47 | 52.22307 | 14.14305 | 36325 ft | 423 kts | 351° |
| 2026-04-26 11:48 | 52.28172 | 14.13722 | 36318 ft | 422 kts | 351° |
| 2026-04-26 11:48 | 52.34039 | 14.13145 | 36330 ft | 422 kts | 351° |
| 2026-04-26 11:49 | 52.39896 | 14.12574 | 36331 ft | 422 kts | 351° |
| 2026-04-26 11:49 | 52.45715 | 14.11997 | 36336 ft | 421 kts | 351° |
| 2026-04-26 11:50 | 52.51562 | 14.11415 | 36330 ft | 421 kts | 351° |
| 2026-04-26 11:50 | 52.57406 | 14.10834 | 36332 ft | 421 kts | 351° |
| 2026-04-26 11:51 | 52.63247 | 14.10248 | 36336 ft | 420 kts | 351° |
| 2026-04-26 11:51 | 52.69079 | 14.09665 | 36336 ft | 420 kts | 351° |
| 2026-04-26 11:52 | 52.73919 | 14.09187 | 36336 ft | 419 kts | 351° |
| 2026-04-26 11:52 | 52.80719 | 14.08501 | 36333 ft | 419 kts | 351° |
| 2026-04-26 11:53 | 52.86381 | 14.06965 | 36333 ft | 406 kts | 332° |
| 2026-04-26 11:54 | 52.94002 | 14.00931 | 36329 ft | 405 kts | 330° |
| 2026-04-26 11:54 | 52.99072 | 13.96852 | 36327 ft | 405 kts | 330° |
| 2026-04-26 11:55 | 53.04141 | 13.92765 | 36328 ft | 405 kts | 330° |
| 2026-04-26 11:55 | 53.09212 | 13.88677 | 36329 ft | 406 kts | 330° |
| 2026-04-26 11:56 | 53.14298 | 13.84575 | 36331 ft | 406 kts | 330° |
| 2026-04-26 11:56 | 53.19374 | 13.80463 | 36340 ft | 406 kts | 330° |
| 2026-04-26 11:57 | 53.24447 | 13.76323 | 36340 ft | 406 kts | 330° |
| 2026-04-26 11:57 | 53.29515 | 13.72179 | 36340 ft | 406 kts | 330° |
| 2026-04-26 11:58 | 53.34599 | 13.68045 | 36205 ft | 407 kts | 330° |
| 2026-04-26 11:58 | 53.37139 | 13.65971 | 35813 ft | 406 kts | 330° |
| 2026-04-26 11:58 | 53.39671 | 13.63895 | 35438 ft | 405 kts | 329° |
| 2026-04-26 11:58 | 53.42207 | 13.61811 | 35070 ft | 405 kts | 329° |
| 2026-04-26 11:59 | 53.44734 | 13.59726 | 34700 ft | 405 kts | 329° |
| 2026-04-26 11:59 | 53.47262 | 13.57634 | 34347 ft | 405 kts | 329° |
| 2026-04-26 11:59 | 53.49792 | 13.55544 | 33939 ft | 405 kts | 329° |
| 2026-04-26 11:59 | 53.52323 | 13.53455 | 33538 ft | 406 kts | 329° |
| 2026-04-26 12:00 | 53.54856 | 13.51361 | 33135 ft | 406 kts | 329° |
| 2026-04-26 12:00 | 53.57388 | 13.49267 | 32738 ft | 406 kts | 329° |
| 2026-04-26 12:00 | 53.59930 | 13.47166 | 32354 ft | 407 kts | 329° |
| 2026-04-26 12:00 | 53.62435 | 13.45090 | 31965 ft | 407 kts | 329° |
| 2026-04-26 12:01 | 53.65013 | 13.42952 | 31581 ft | 408 kts | 329° |
| 2026-04-26 12:01 | 53.67559 | 13.40837 | 31204 ft | 408 kts | 329° |
| 2026-04-26 12:01 | 53.70100 | 13.38723 | 30846 ft | 408 kts | 329° |
| 2026-04-26 12:01 | 53.72621 | 13.36624 | 30480 ft | 409 kts | 329° |
| 2026-04-26 12:02 | 53.75171 | 13.34495 | 30065 ft | 410 kts | 330° |
| 2026-04-26 12:02 | 53.76899 | 13.33051 | 29779 ft | 410 kts | 330° |
| 2026-04-26 12:02 | 53.80292 | 13.30207 | 29204 ft | 411 kts | 330° |
| 2026-04-26 12:02 | 53.82847 | 13.28063 | 28800 ft | 410 kts | 330° |
| 2026-04-26 12:03 | 53.85393 | 13.25925 | 28398 ft | 407 kts | 330° |
| 2026-04-26 12:03 | 53.87921 | 13.23801 | 28007 ft | 404 kts | 330° |
| 2026-04-26 12:03 | 53.90432 | 13.21684 | 27604 ft | 402 kts | 330° |
| 2026-04-26 12:03 | 53.92924 | 13.19580 | 27217 ft | 399 kts | 330° |
| 2026-04-26 12:04 | 53.95400 | 13.17489 | 26836 ft | 397 kts | 330° |
| 2026-04-26 12:04 | 53.97872 | 13.15401 | 26448 ft | 394 kts | 330° |
| 2026-04-26 12:04 | 54.00316 | 13.13332 | 26080 ft | 392 kts | 331° |
| 2026-04-26 12:04 | 54.02747 | 13.11275 | 25717 ft | 389 kts | 331° |
| 2026-04-26 12:05 | 54.05168 | 13.09223 | 25362 ft | 387 kts | 331° |
| 2026-04-26 12:05 | 54.07566 | 13.07185 | 24991 ft | 384 kts | 331° |
| 2026-04-26 12:05 | 54.09952 | 13.05156 | 24636 ft | 382 kts | 331° |
| 2026-04-26 12:05 | 54.12321 | 13.03135 | 24285 ft | 380 kts | 331° |
| 2026-04-26 12:06 | 54.14678 | 13.01120 | 23937 ft | 377 kts | 331° |
| 2026-04-26 12:06 | 54.17019 | 12.99113 | 23522 ft | 375 kts | 331° |
| 2026-04-26 12:06 | 54.19345 | 12.97117 | 23120 ft | 373 kts | 331° |
| 2026-04-26 12:06 | 54.21656 | 12.95137 | 22717 ft | 371 kts | 332° |
| 2026-04-26 12:07 | 54.23957 | 12.93167 | 22318 ft | 369 kts | 332° |
| 2026-04-26 12:07 | 54.26243 | 12.91208 | 21927 ft | 367 kts | 332° |
| 2026-04-26 12:07 | 54.28516 | 12.89255 | 21589 ft | 365 kts | 332° |
| 2026-04-26 12:07 | 54.30775 | 12.87308 | 21256 ft | 363 kts | 332° |
| 2026-04-26 12:08 | 54.33023 | 12.85369 | 20930 ft | 361 kts | 332° |
| 2026-04-26 12:08 | 54.35261 | 12.83435 | 20605 ft | 359 kts | 332° |
| 2026-04-26 12:08 | 54.37488 | 12.81506 | 20278 ft | 358 kts | 332° |
| 2026-04-26 12:08 | 54.39703 | 12.79589 | 19961 ft | 356 kts | 332° |
| 2026-04-26 12:09 | 54.41909 | 12.77680 | 19647 ft | 354 kts | 332° |
| 2026-04-26 12:09 | 54.44106 | 12.75776 | 19336 ft | 353 kts | 332° |
| 2026-04-26 12:09 | 54.46288 | 12.73882 | 19036 ft | 351 kts | 332° |
| 2026-04-26 12:09 | 54.48463 | 12.71996 | 18716 ft | 349 kts | 332° |
| 2026-04-26 12:10 | 54.50628 | 12.70117 | 18384 ft | 348 kts | 332° |
| 2026-04-26 12:10 | 54.52783 | 12.68243 | 18044 ft | 347 kts | 332° |
| 2026-04-26 12:10 | 54.54934 | 12.66367 | 17784 ft | 346 kts | 332° |
| 2026-04-26 12:10 | 54.57105 | 12.64467 | 17517 ft | 345 kts | 332° |
| 2026-04-26 12:11 | 54.59239 | 12.62593 | 17257 ft | 344 kts | 332° |
| 2026-04-26 12:11 | 54.61366 | 12.60724 | 16996 ft | 343 kts | 332° |
| 2026-04-26 12:11 | 54.63490 | 12.58856 | 16725 ft | 342 kts | 332° |
| 2026-04-26 12:11 | 54.65709 | 12.57405 | 16444 ft | 343 kts | 346° |
| 2026-04-26 12:12 | 54.68066 | 12.56726 | 16113 ft | 343 kts | 348° |
| 2026-04-26 12:12 | 54.70422 | 12.56095 | 15796 ft | 342 kts | 348° |
| 2026-04-26 12:12 | 54.72771 | 12.55481 | 15472 ft | 341 kts | 349° |
| 2026-04-26 12:12 | 54.74323 | 12.55078 | 15256 ft | 340 kts | 349° |
| 2026-04-26 12:13 | 54.77443 | 12.54257 | 14833 ft | 338 kts | 349° |
| 2026-04-26 12:13 | 54.79761 | 12.53636 | 14529 ft | 337 kts | 349° |
| 2026-04-26 12:13 | 54.82045 | 12.53020 | 14219 ft | 336 kts | 349° |
| 2026-04-26 12:13 | 54.84382 | 12.52385 | 13873 ft | 335 kts | 349° |
| 2026-04-26 12:14 | 54.86649 | 12.51771 | 13533 ft | 334 kts | 349° |
| 2026-04-26 12:14 | 54.88937 | 12.51154 | 13188 ft | 332 kts | 349° |
| 2026-04-26 12:14 | 54.91219 | 12.50540 | 12848 ft | 331 kts | 349° |
| 2026-04-26 12:14 | 54.93491 | 12.49929 | 12509 ft | 330 kts | 349° |
| 2026-04-26 12:15 | 54.95759 | 12.49312 | 12166 ft | 329 kts | 349° |
| 2026-04-26 12:15 | 54.98010 | 12.48697 | 11847 ft | 328 kts | 349° |
| 2026-04-26 12:15 | 55.00264 | 12.48081 | 11522 ft | 327 kts | 349° |
| 2026-04-26 12:15 | 55.02485 | 12.47480 | 11170 ft | 319 kts | 349° |
| 2026-04-26 12:16 | 55.03928 | 12.47092 | 10939 ft | 314 kts | 349° |
| 2026-04-26 12:16 | 55.06057 | 12.46514 | 10596 ft | 306 kts | 349° |
| 2026-04-26 12:16 | 55.08137 | 12.45947 | 10260 ft | 299 kts | 349° |
| 2026-04-26 12:16 | 55.10152 | 12.45402 | 9882 ft | 284 kts | 349° |
| 2026-04-26 12:17 | 55.12053 | 12.44891 | 9503 ft | 271 kts | 349° |
| 2026-04-26 12:17 | 55.13887 | 12.44388 | 9125 ft | 263 kts | 349° |
| 2026-04-26 12:17 | 55.15678 | 12.43901 | 8759 ft | 259 kts | 349° |
| 2026-04-26 12:17 | 55.17456 | 12.43416 | 8387 ft | 258 kts | 349° |
| 2026-04-26 12:18 | 55.19222 | 12.42933 | 8026 ft | 254 kts | 349° |
| 2026-04-26 12:18 | 55.20938 | 12.42462 | 7666 ft | 245 kts | 349° |
| 2026-04-26 12:18 | 55.22575 | 12.42013 | 7311 ft | 232 kts | 349° |
| 2026-04-26 12:18 | 55.24147 | 12.41578 | 6961 ft | 227 kts | 349° |
| 2026-04-26 12:19 | 55.25704 | 12.41150 | 6608 ft | 226 kts | 349° |
| 2026-04-26 12:19 | 55.27270 | 12.40723 | 6223 ft | 228 kts | 349° |
| 2026-04-26 12:19 | 55.28843 | 12.40288 | 5850 ft | 228 kts | 349° |
| 2026-04-26 12:19 | 55.30401 | 12.39859 | 5478 ft | 225 kts | 349° |
| 2026-04-26 12:20 | 55.31941 | 12.39436 | 5119 ft | 224 kts | 348° |
| 2026-04-26 12:20 | 55.33480 | 12.39012 | 4737 ft | 224 kts | 349° |
| 2026-04-26 12:20 | 55.35014 | 12.38593 | 4366 ft | 221 kts | 348° |
| 2026-04-26 12:20 | 55.36530 | 12.38179 | 3995 ft | 220 kts | 348° |
| 2026-04-26 12:21 | 55.38053 | 12.37759 | 3635 ft | 222 kts | 349° |
| 2026-04-26 12:21 | 55.39586 | 12.37337 | 3270 ft | 224 kts | 349° |
| 2026-04-26 12:21 | 55.41100 | 12.36922 | 3011 ft | 218 kts | 349° |
| 2026-04-26 12:21 | 55.42603 | 12.36687 | 3004 ft | 218 kts | 2° |
| 2026-04-26 12:22 | 55.44054 | 12.37368 | 3006 ft | 221 kts | 24° |
| 2026-04-26 12:22 | 55.45313 | 12.38975 | 3014 ft | 226 kts | 37° |
| 2026-04-26 12:22 | 55.46483 | 12.40774 | 3002 ft | 218 kts | 37° |
| 2026-04-26 12:22 | 55.47584 | 12.42469 | 2997 ft | 203 kts | 37° |
| 2026-04-26 12:23 | 55.48615 | 12.44051 | 2881 ft | 192 kts | 37° |
| 2026-04-26 12:23 | 55.49608 | 12.45571 | 2620 ft | 187 kts | 37° |
| 2026-04-26 12:23 | 55.50578 | 12.47057 | 2373 ft | 184 kts | 37° |
| 2026-04-26 12:23 | 55.51533 | 12.48522 | 2118 ft | 181 kts | 37° |
| 2026-04-26 12:24 | 55.52460 | 12.49947 | 1866 ft | 170 kts | 36° |
| 2026-04-26 12:24 | 55.53330 | 12.51285 | 1642 ft | 163 kts | 36° |
| 2026-04-26 12:24 | 55.54169 | 12.52576 | 1445 ft | 153 kts | 36° |
| 2026-04-26 12:25 | 55.55677 | 12.54896 | 1015 ft | 138 kts | 37° |
| 2026-04-26 12:25 | 55.56390 | 12.55993 | 814 ft | 135 kts | 37° |
| 2026-04-26 12:25 | 55.57094 | 12.57078 | 637 ft | 133 kts | 37° |
| 2026-04-26 12:25 | 55.57783 | 12.58139 | 435 ft | 130 kts | 39° |
| 2026-04-26 12:26 | 55.58467 | 12.59182 | 269 ft | 130 kts | 38° |
| 2026-04-26 12:26 | 55.59136 | 12.60207 | 111 ft | 126 kts | 41° |
| 2026-04-26 12:26 | 55.59761 | 12.61168 | 28 ft | 101 kts | 41° |
| 2026-04-26 12:26 | 55.60031 | 12.61600 | 25 ft | 36 kts | 41° |
| 2026-04-26 12:27 | 55.60207 | 12.61871 | 24 ft | 32 kts | 43° |
| 2026-04-26 12:27 | 55.60372 | 12.62125 | 23 ft | 31 kts | 41° |
| 2026-04-26 12:27 | 55.60535 | 12.62377 | 27 ft | 34 kts | 44° |
| 2026-04-26 12:27 | 55.60770 | 12.62739 | 25 ft | 47 kts | 41° |
| 2026-04-26 12:28 | 55.61002 | 12.63099 | 26 ft | 42 kts | 42° |
| 2026-04-26 12:28 | 55.61207 | 12.63423 | 27 ft | 38 kts | 43° |
| 2026-04-26 12:28 | 55.61402 | 12.63723 | 25 ft | 36 kts | 41° |
| 2026-04-26 12:28 | 55.61586 | 12.64008 | 26 ft | 34 kts | 41° |
| 2026-04-26 12:29 | 55.61651 | 12.64328 | 24 ft | 10 kts | 86° |
| 2026-04-26 12:29 | 55.61656 | 12.64466 | 24 ft | 12 kts | 86° |
| 2026-04-26 12:29 | 55.61787 | 12.64695 | 24 ft | 16 kts | 34° |
| 2026-04-26 12:30 | 55.61881 | 12.64803 | 24 ft | 17 kts | 32° |
| 2026-04-26 12:30 | 55.61987 | 12.64922 | 26 ft | 19 kts | 32° |
| 2026-04-26 12:30 | 55.62103 | 12.65056 | 24 ft | 21 kts | 32° |
| 2026-04-26 12:31 | 55.62294 | 12.65247 | 25 ft | 7 kts | 86° |
| 2026-04-26 12:31 | 55.62312 | 12.65320 | 25 ft | 6 kts | 38° |
| 2026-04-26 12:31 | 55.62366 | 12.65330 | 24 ft | 9 kts | 360° |
| 2026-04-26 12:31 | 55.62428 | 12.65327 | 24 ft | 9 kts | 359° |